sensor_id;sensor_type;location;lat;lon;timestamp;P1;durP1;ratioP1;P2;durP2;ratioP2
31284;SDS011;56605;51.516;6.742;2023-01-01T00:02:03;21.75;;;9.02;;
31284;SDS011;56605;51.516;6.742;2023-01-01T00:04:28;17.10;;;7.32;;
31284;SDS011;56605;51.516;6.742;2023-01-01T00:06:54;17.98;;;8.50;;
31284;SDS011;56605;51.516;6.742;2023-01-01T00:09:19;15.93;;;6.65;;
31284;SDS011;56605;51.516;6.742;2023-01-01T00:12:03;18.10;;;9.45;;
31284;SDS011;56605;51.516;6.742;2023-01-01T00:14:29;19.38;;;10.55;;
31284;SDS011;56605;51.516;6.742;2023-01-01T00:16:54;25.05;;;10.63;;
31284;SDS011;56605;51.516;6.742;2023-01-01T00:19:20;18.80;;;8.50;;
31284;SDS011;56605;51.516;6.742;2023-01-01T00:21:46;30.92;;;10.77;;
31284;SDS011;56605;51.516;6.742;2023-01-01T00:24:11;18.88;;;10.05;;
31284;SDS011;56605;51.516;6.742;2023-01-01T00:26:36;17.10;;;9.45;;
31284;SDS011;56605;51.516;6.742;2023-01-01T00:29:02;16.73;;;8.23;;
31284;SDS011;56605;51.516;6.742;2023-01-01T00:31:28;22.17;;;9.02;;
31284;SDS011;56605;51.516;6.742;2023-01-01T00:33:53;19.52;;;9.32;;
31284;SDS011;56605;51.516;6.742;2023-01-01T00:36:20;19.30;;;8.98;;
31284;SDS011;56605;51.516;6.742;2023-01-01T00:38:47;18.38;;;8.25;;
31284;SDS011;56605;51.516;6.742;2023-01-01T00:41:13;24.67;;;9.68;;
31284;SDS011;56605;51.516;6.742;2023-01-01T00:43:39;23.95;;;10.68;;
31284;SDS011;56605;51.516;6.742;2023-01-01T00:46:05;19.88;;;9.80;;
31284;SDS011;56605;51.516;6.742;2023-01-01T00:48:34;21.65;;;8.75;;
31284;SDS011;56605;51.516;6.742;2023-01-01T00:50:59;27.00;;;12.25;;
31284;SDS011;56605;51.516;6.742;2023-01-01T00:53:25;19.02;;;9.80;;
31284;SDS011;56605;51.516;6.742;2023-01-01T00:55:50;19.50;;;9.90;;
31284;SDS011;56605;51.516;6.742;2023-01-01T00:58:16;16.20;;;8.02;;
31284;SDS011;56605;51.516;6.742;2023-01-01T01:00:43;22.02;;;8.85;;
31284;SDS011;56605;51.516;6.742;2023-01-01T01:03:09;23.88;;;9.10;;
31284;SDS011;56605;51.516;6.742;2023-01-01T01:05:51;25.40;;;10.60;;
31284;SDS011;56605;51.516;6.742;2023-01-01T01:08:26;19.70;;;10.45;;
31284;SDS011;56605;51.516;6.742;2023-01-01T01:10:52;24.52;;;10.35;;
31284;SDS011;56605;51.516;6.742;2023-01-01T01:13:18;21.30;;;8.32;;
31284;SDS011;56605;51.516;6.742;2023-01-01T01:15:44;20.92;;;8.60;;
31284;SDS011;56605;51.516;6.742;2023-01-01T01:18:10;24.20;;;8.60;;
31284;SDS011;56605;51.516;6.742;2023-01-01T01:20:35;19.75;;;6.45;;
31284;SDS011;56605;51.516;6.742;2023-01-01T01:23:00;19.02;;;7.28;;
31284;SDS011;56605;51.516;6.742;2023-01-01T01:25:25;22.83;;;9.32;;
31284;SDS011;56605;51.516;6.742;2023-01-01T01:27:51;19.38;;;7.22;;
31284;SDS011;56605;51.516;6.742;2023-01-01T01:30:16;27.95;;;8.18;;
31284;SDS011;56605;51.516;6.742;2023-01-01T01:32:41;17.75;;;6.95;;
31284;SDS011;56605;51.516;6.742;2023-01-01T01:35:07;19.65;;;7.65;;
31284;SDS011;56605;51.516;6.742;2023-01-01T01:37:32;17.60;;;5.70;;
31284;SDS011;56605;51.516;6.742;2023-01-01T01:39:58;14.23;;;5.65;;
31284;SDS011;56605;51.516;6.742;2023-01-01T01:42:23;15.75;;;5.57;;
31284;SDS011;56605;51.516;6.742;2023-01-01T01:44:53;15.15;;;5.40;;
31284;SDS011;56605;51.516;6.742;2023-01-01T01:47:29;16.48;;;4.72;;
31284;SDS011;56605;51.516;6.742;2023-01-01T01:50:00;14.50;;;6.68;;
31284;SDS011;56605;51.516;6.742;2023-01-01T01:52:27;20.92;;;6.63;;
31284;SDS011;56605;51.516;6.742;2023-01-01T01:54:54;14.07;;;4.65;;
31284;SDS011;56605;51.516;6.742;2023-01-01T01:57:21;11.27;;;3.80;;
31284;SDS011;56605;51.516;6.742;2023-01-01T01:59:48;15.70;;;5.22;;
31284;SDS011;56605;51.516;6.742;2023-01-01T02:07:29;14.77;;;4.15;;
31284;SDS011;56605;51.516;6.742;2023-01-01T02:09:56;15.85;;;5.60;;
31284;SDS011;56605;51.516;6.742;2023-01-01T02:12:22;19.85;;;6.22;;
31284;SDS011;56605;51.516;6.742;2023-01-01T02:14:48;19.30;;;6.82;;
31284;SDS011;56605;51.516;6.742;2023-01-01T02:18:00;16.20;;;4.70;;
31284;SDS011;56605;51.516;6.742;2023-01-01T02:20:28;10.68;;;3.30;;
31284;SDS011;56605;51.516;6.742;2023-01-01T02:31:12;11.82;;;3.08;;
31284;SDS011;56605;51.516;6.742;2023-01-01T02:33:41;12.07;;;3.15;;
31284;SDS011;56605;51.516;6.742;2023-01-01T02:36:09;8.27;;;3.08;;
31284;SDS011;56605;51.516;6.742;2023-01-01T02:38:36;9.00;;;2.88;;
31284;SDS011;56605;51.516;6.742;2023-01-01T02:43:36;9.23;;;4.60;;
31284;SDS011;56605;51.516;6.742;2023-01-01T02:46:06;13.45;;;3.58;;
31284;SDS011;56605;51.516;6.742;2023-01-01T02:48:46;18.27;;;7.07;;
31284;SDS011;56605;51.516;6.742;2023-01-01T02:53:40;13.40;;;4.90;;
31284;SDS011;56605;51.516;6.742;2023-01-01T02:59:08;16.10;;;4.07;;
31284;SDS011;56605;51.516;6.742;2023-01-01T03:04:53;10.05;;;2.90;;
31284;SDS011;56605;51.516;6.742;2023-01-01T03:10:02;11.02;;;3.38;;
31284;SDS011;56605;51.516;6.742;2023-01-01T03:12:36;11.48;;;3.13;;
31284;SDS011;56605;51.516;6.742;2023-01-01T03:15:13;12.68;;;4.00;;
31284;SDS011;56605;51.516;6.742;2023-01-01T03:17:56;11.45;;;3.08;;
31284;SDS011;56605;51.516;6.742;2023-01-01T03:20:39;9.50;;;2.72;;
31284;SDS011;56605;51.516;6.742;2023-01-01T03:23:11;12.75;;;3.10;;
31284;SDS011;56605;51.516;6.742;2023-01-01T03:25:45;19.48;;;2.53;;
31284;SDS011;56605;51.516;6.742;2023-01-01T03:28:15;5.78;;;2.17;;
31284;SDS011;56605;51.516;6.742;2023-01-01T03:30:45;8.63;;;2.63;;
31284;SDS011;56605;51.516;6.742;2023-01-01T03:33:15;8.27;;;2.45;;
31284;SDS011;56605;51.516;6.742;2023-01-01T03:35:50;7.57;;;2.83;;
31284;SDS011;56605;51.516;6.742;2023-01-01T03:41:04;9.15;;;2.80;;
31284;SDS011;56605;51.516;6.742;2023-01-01T03:46:43;13.10;;;2.17;;
31284;SDS011;56605;51.516;6.742;2023-01-01T03:49:10;20.65;;;2.67;;
31284;SDS011;56605;51.516;6.742;2023-01-01T03:57:21;13.00;;;2.70;;
31284;SDS011;56605;51.516;6.742;2023-01-01T04:00:11;11.00;;;3.33;;
31284;SDS011;56605;51.516;6.742;2023-01-01T04:05:09;6.68;;;2.15;;
31284;SDS011;56605;51.516;6.742;2023-01-01T04:07:35;10.30;;;2.97;;
31284;SDS011;56605;51.516;6.742;2023-01-01T04:10:01;6.65;;;2.30;;
31284;SDS011;56605;51.516;6.742;2023-01-01T04:12:41;8.48;;;3.05;;
31284;SDS011;56605;51.516;6.742;2023-01-01T04:15:08;13.23;;;4.20;;
31284;SDS011;56605;51.516;6.742;2023-01-01T04:17:33;7.15;;;2.80;;
31284;SDS011;56605;51.516;6.742;2023-01-01T04:19:58;7.85;;;2.67;;
31284;SDS011;56605;51.516;6.742;2023-01-01T04:22:24;9.00;;;2.40;;
31284;SDS011;56605;51.516;6.742;2023-01-01T04:24:53;10.07;;;3.10;;
31284;SDS011;56605;51.516;6.742;2023-01-01T04:27:18;17.58;;;6.63;;
31284;SDS011;56605;51.516;6.742;2023-01-01T04:29:44;11.23;;;5.10;;
31284;SDS011;56605;51.516;6.742;2023-01-01T04:32:09;8.35;;;2.50;;
31284;SDS011;56605;51.516;6.742;2023-01-01T04:34:34;10.68;;;2.38;;
31284;SDS011;56605;51.516;6.742;2023-01-01T04:37:00;11.68;;;3.20;;
31284;SDS011;56605;51.516;6.742;2023-01-01T04:39:25;11.90;;;3.90;;
31284;SDS011;56605;51.516;6.742;2023-01-01T04:41:50;5.93;;;2.05;;
31284;SDS011;56605;51.516;6.742;2023-01-01T04:44:15;12.10;;;2.65;;
31284;SDS011;56605;51.516;6.742;2023-01-01T04:46:40;7.90;;;2.38;;
31284;SDS011;56605;51.516;6.742;2023-01-01T04:49:06;4.93;;;2.13;;
31284;SDS011;56605;51.516;6.742;2023-01-01T04:51:31;9.32;;;2.03;;
31284;SDS011;56605;51.516;6.742;2023-01-01T04:53:57;9.25;;;2.38;;
31284;SDS011;56605;51.516;6.742;2023-01-01T04:56:24;4.78;;;1.90;;
31284;SDS011;56605;51.516;6.742;2023-01-01T04:58:49;13.05;;;2.83;;
31284;SDS011;56605;51.516;6.742;2023-01-01T05:01:19;12.38;;;2.88;;
31284;SDS011;56605;51.516;6.742;2023-01-01T05:03:48;10.40;;;2.08;;
31284;SDS011;56605;51.516;6.742;2023-01-01T05:06:15;10.05;;;1.95;;
31284;SDS011;56605;51.516;6.742;2023-01-01T05:08:41;11.07;;;1.90;;
31284;SDS011;56605;51.516;6.742;2023-01-01T05:13:36;4.80;;;1.30;;
31284;SDS011;56605;51.516;6.742;2023-01-01T05:16:03;6.63;;;1.90;;
31284;SDS011;56605;51.516;6.742;2023-01-01T05:18:30;15.27;;;4.40;;
31284;SDS011;56605;51.516;6.742;2023-01-01T05:20:58;7.35;;;3.50;;
31284;SDS011;56605;51.516;6.742;2023-01-01T05:23:25;16.50;;;4.22;;
31284;SDS011;56605;51.516;6.742;2023-01-01T05:25:50;13.35;;;4.60;;
31284;SDS011;56605;51.516;6.742;2023-01-01T05:28:15;14.82;;;4.85;;
31284;SDS011;56605;51.516;6.742;2023-01-01T05:30:41;11.82;;;4.22;;
31284;SDS011;56605;51.516;6.742;2023-01-01T05:33:06;11.98;;;3.50;;
31284;SDS011;56605;51.516;6.742;2023-01-01T05:35:31;18.58;;;4.30;;
31284;SDS011;56605;51.516;6.742;2023-01-01T05:37:57;11.75;;;5.15;;
31284;SDS011;56605;51.516;6.742;2023-01-01T05:40:22;14.68;;;4.03;;
31284;SDS011;56605;51.516;6.742;2023-01-01T05:42:47;15.07;;;3.70;;
31284;SDS011;56605;51.516;6.742;2023-01-01T05:45:12;8.43;;;2.97;;
31284;SDS011;56605;51.516;6.742;2023-01-01T05:47:38;9.90;;;2.88;;
31284;SDS011;56605;51.516;6.742;2023-01-01T05:50:03;8.60;;;3.10;;
31284;SDS011;56605;51.516;6.742;2023-01-01T05:52:29;10.35;;;2.53;;
31284;SDS011;56605;51.516;6.742;2023-01-01T05:54:55;12.60;;;4.13;;
31284;SDS011;56605;51.516;6.742;2023-01-01T05:57:20;8.70;;;2.78;;
31284;SDS011;56605;51.516;6.742;2023-01-01T05:59:45;6.88;;;2.10;;
31284;SDS011;56605;51.516;6.742;2023-01-01T06:02:10;8.02;;;2.50;;
31284;SDS011;56605;51.516;6.742;2023-01-01T06:04:36;9.02;;;3.20;;
31284;SDS011;56605;51.516;6.742;2023-01-01T06:07:01;9.25;;;2.22;;
31284;SDS011;56605;51.516;6.742;2023-01-01T06:09:26;8.98;;;2.20;;
31284;SDS011;56605;51.516;6.742;2023-01-01T06:11:52;7.32;;;2.33;;
31284;SDS011;56605;51.516;6.742;2023-01-01T06:14:17;12.40;;;4.00;;
31284;SDS011;56605;51.516;6.742;2023-01-01T06:16:42;15.73;;;3.22;;
31284;SDS011;56605;51.516;6.742;2023-01-01T06:19:08;7.85;;;2.80;;
31284;SDS011;56605;51.516;6.742;2023-01-01T06:21:33;10.40;;;2.20;;
31284;SDS011;56605;51.516;6.742;2023-01-01T06:23:58;6.65;;;2.10;;
31284;SDS011;56605;51.516;6.742;2023-01-01T06:26:26;9.80;;;1.98;;
31284;SDS011;56605;51.516;6.742;2023-01-01T06:28:53;6.25;;;2.20;;
31284;SDS011;56605;51.516;6.742;2023-01-01T06:31:20;9.85;;;2.40;;
31284;SDS011;56605;51.516;6.742;2023-01-01T06:33:45;8.02;;;1.73;;
31284;SDS011;56605;51.516;6.742;2023-01-01T06:36:12;5.25;;;2.53;;
31284;SDS011;56605;51.516;6.742;2023-01-01T06:38:43;6.60;;;1.98;;
31284;SDS011;56605;51.516;6.742;2023-01-01T06:41:10;13.13;;;2.08;;
31284;SDS011;56605;51.516;6.742;2023-01-01T06:43:37;9.13;;;2.20;;
31284;SDS011;56605;51.516;6.742;2023-01-01T06:46:04;12.00;;;3.20;;
31284;SDS011;56605;51.516;6.742;2023-01-01T06:48:41;7.20;;;1.83;;
31284;SDS011;56605;51.516;6.742;2023-01-01T06:51:14;9.23;;;2.15;;
31284;SDS011;56605;51.516;6.742;2023-01-01T06:53:41;10.80;;;2.53;;
31284;SDS011;56605;51.516;6.742;2023-01-01T06:56:06;10.38;;;2.60;;
31284;SDS011;56605;51.516;6.742;2023-01-01T06:58:31;11.20;;;3.10;;
31284;SDS011;56605;51.516;6.742;2023-01-01T07:06:23;10.80;;;2.60;;
31284;SDS011;56605;51.516;6.742;2023-01-01T07:08:49;12.85;;;2.08;;
31284;SDS011;56605;51.516;6.742;2023-01-01T07:11:15;6.30;;;1.98;;
31284;SDS011;56605;51.516;6.742;2023-01-01T07:13:40;8.40;;;2.35;;
31284;SDS011;56605;51.516;6.742;2023-01-01T07:16:06;6.32;;;1.88;;
31284;SDS011;56605;51.516;6.742;2023-01-01T07:18:31;8.20;;;2.13;;
31284;SDS011;56605;51.516;6.742;2023-01-01T07:20:58;13.05;;;2.83;;
31284;SDS011;56605;51.516;6.742;2023-01-01T07:23:25;10.73;;;2.40;;
31284;SDS011;56605;51.516;6.742;2023-01-01T07:25:52;5.05;;;1.30;;
31284;SDS011;56605;51.516;6.742;2023-01-01T07:28:18;6.10;;;2.13;;
31284;SDS011;56605;51.516;6.742;2023-01-01T07:30:44;9.10;;;2.10;;
31284;SDS011;56605;51.516;6.742;2023-01-01T07:33:10;5.90;;;1.90;;
31284;SDS011;56605;51.516;6.742;2023-01-01T07:35:37;3.47;;;1.50;;
31284;SDS011;56605;51.516;6.742;2023-01-01T07:38:03;5.80;;;1.50;;
31284;SDS011;56605;51.516;6.742;2023-01-01T07:40:28;5.90;;;3.05;;
31284;SDS011;56605;51.516;6.742;2023-01-01T07:42:53;11.35;;;3.08;;
31284;SDS011;56605;51.516;6.742;2023-01-01T07:45:18;8.60;;;2.25;;
31284;SDS011;56605;51.516;6.742;2023-01-01T07:47:46;6.38;;;2.30;;
31284;SDS011;56605;51.516;6.742;2023-01-01T07:50:15;5.13;;;1.67;;
31284;SDS011;56605;51.516;6.742;2023-01-01T07:52:41;9.05;;;2.72;;
31284;SDS011;56605;51.516;6.742;2023-01-01T07:55:07;6.20;;;2.67;;
31284;SDS011;56605;51.516;6.742;2023-01-01T07:57:37;12.98;;;2.65;;
31284;SDS011;56605;51.516;6.742;2023-01-01T08:00:02;5.75;;;1.90;;
31284;SDS011;56605;51.516;6.742;2023-01-01T08:02:28;5.45;;;1.80;;
31284;SDS011;56605;51.516;6.742;2023-01-01T08:04:53;6.80;;;2.30;;
31284;SDS011;56605;51.516;6.742;2023-01-01T08:07:19;7.68;;;2.33;;
31284;SDS011;56605;51.516;6.742;2023-01-01T08:09:44;9.70;;;2.33;;
31284;SDS011;56605;51.516;6.742;2023-01-01T08:12:09;6.13;;;1.75;;
31284;SDS011;56605;51.516;6.742;2023-01-01T08:14:34;7.13;;;1.92;;
31284;SDS011;56605;51.516;6.742;2023-01-01T08:17:00;3.95;;;1.35;;
31284;SDS011;56605;51.516;6.742;2023-01-01T08:19:25;8.38;;;1.70;;
31284;SDS011;56605;51.516;6.742;2023-01-01T08:21:50;8.68;;;2.30;;
31284;SDS011;56605;51.516;6.742;2023-01-01T08:24:15;10.75;;;2.30;;
31284;SDS011;56605;51.516;6.742;2023-01-01T08:26:41;6.93;;;1.65;;
31284;SDS011;56605;51.516;6.742;2023-01-01T08:29:06;7.50;;;1.90;;
31284;SDS011;56605;51.516;6.742;2023-01-01T08:31:32;10.07;;;3.15;;
31284;SDS011;56605;51.516;6.742;2023-01-01T08:33:57;10.65;;;2.92;;
31284;SDS011;56605;51.516;6.742;2023-01-01T08:36:23;8.55;;;2.83;;
31284;SDS011;56605;51.516;6.742;2023-01-01T08:38:49;7.57;;;2.33;;
31284;SDS011;56605;51.516;6.742;2023-01-01T08:41:14;7.53;;;2.22;;
31284;SDS011;56605;51.516;6.742;2023-01-01T08:43:40;5.85;;;1.85;;
31284;SDS011;56605;51.516;6.742;2023-01-01T08:46:05;8.90;;;2.25;;
31284;SDS011;56605;51.516;6.742;2023-01-01T08:48:30;10.95;;;2.53;;
31284;SDS011;56605;51.516;6.742;2023-01-01T08:50:56;9.40;;;2.13;;
31284;SDS011;56605;51.516;6.742;2023-01-01T08:53:29;9.07;;;3.05;;
31284;SDS011;56605;51.516;6.742;2023-01-01T08:55:56;9.55;;;3.30;;
31284;SDS011;56605;51.516;6.742;2023-01-01T08:58:21;8.23;;;2.35;;
31284;SDS011;56605;51.516;6.742;2023-01-01T09:00:46;6.80;;;1.88;;
31284;SDS011;56605;51.516;6.742;2023-01-01T09:03:12;3.72;;;1.90;;
31284;SDS011;56605;51.516;6.742;2023-01-01T09:05:37;3.65;;;1.63;;
31284;SDS011;56605;51.516;6.742;2023-01-01T09:08:02;3.60;;;1.38;;
31284;SDS011;56605;51.516;6.742;2023-01-01T09:10:28;6.25;;;2.13;;
31284;SDS011;56605;51.516;6.742;2023-01-01T09:12:54;5.18;;;1.90;;
31284;SDS011;56605;51.516;6.742;2023-01-01T09:15:19;4.55;;;1.70;;
31284;SDS011;56605;51.516;6.742;2023-01-01T09:17:44;3.08;;;1.70;;
31284;SDS011;56605;51.516;6.742;2023-01-01T09:20:10;6.00;;;1.70;;
31284;SDS011;56605;51.516;6.742;2023-01-01T09:22:35;8.63;;;2.55;;
31284;SDS011;56605;51.516;6.742;2023-01-01T09:25:00;6.47;;;1.77;;
31284;SDS011;56605;51.516;6.742;2023-01-01T09:27:26;5.07;;;1.60;;
31284;SDS011;56605;51.516;6.742;2023-01-01T09:29:51;12.63;;;2.40;;
31284;SDS011;56605;51.516;6.742;2023-01-01T09:32:16;6.15;;;2.40;;
31284;SDS011;56605;51.516;6.742;2023-01-01T09:34:42;9.15;;;2.88;;
31284;SDS011;56605;51.516;6.742;2023-01-01T09:37:08;9.98;;;2.47;;
31284;SDS011;56605;51.516;6.742;2023-01-01T09:39:33;9.75;;;2.60;;
31284;SDS011;56605;51.516;6.742;2023-01-01T09:47:56;7.30;;;2.10;;
31284;SDS011;56605;51.516;6.742;2023-01-01T09:50:35;12.30;;;2.35;;
31284;SDS011;56605;51.516;6.742;2023-01-01T09:53:05;14.48;;;3.17;;
31284;SDS011;56605;51.516;6.742;2023-01-01T09:55:40;13.05;;;3.72;;
31284;SDS011;56605;51.516;6.742;2023-01-01T09:58:10;11.82;;;2.83;;
31284;SDS011;56605;51.516;6.742;2023-01-01T10:00:44;10.18;;;2.55;;
31284;SDS011;56605;51.516;6.742;2023-01-01T10:03:16;7.80;;;2.55;;
31284;SDS011;56605;51.516;6.742;2023-01-01T10:06:20;6.82;;;2.47;;
31284;SDS011;56605;51.516;6.742;2023-01-01T10:11:24;6.95;;;2.83;;
31284;SDS011;56605;51.516;6.742;2023-01-01T10:13:56;14.70;;;2.97;;
31284;SDS011;56605;51.516;6.742;2023-01-01T10:18:55;12.27;;;3.55;;
31284;SDS011;56605;51.516;6.742;2023-01-01T10:21:30;8.05;;;3.47;;
31284;SDS011;56605;51.516;6.742;2023-01-01T10:23:58;11.10;;;3.53;;
31284;SDS011;56605;51.516;6.742;2023-01-01T10:26:28;13.13;;;3.70;;
31284;SDS011;56605;51.516;6.742;2023-01-01T10:31:52;5.05;;;2.28;;
31284;SDS011;56605;51.516;6.742;2023-01-01T10:34:24;8.02;;;2.65;;
31284;SDS011;56605;51.516;6.742;2023-01-01T10:36:57;10.20;;;2.58;;
31284;SDS011;56605;51.516;6.742;2023-01-01T10:39:24;16.73;;;4.00;;
31284;SDS011;56605;51.516;6.742;2023-01-01T10:41:50;10.98;;;3.97;;
31284;SDS011;56605;51.516;6.742;2023-01-01T10:44:27;12.65;;;5.28;;
31284;SDS011;56605;51.516;6.742;2023-01-01T10:46:59;11.38;;;3.15;;
31284;SDS011;56605;51.516;6.742;2023-01-01T10:49:35;16.10;;;5.38;;
31284;SDS011;56605;51.516;6.742;2023-01-01T10:52:18;12.05;;;3.47;;
31284;SDS011;56605;51.516;6.742;2023-01-01T10:54:48;8.32;;;3.53;;
31284;SDS011;56605;51.516;6.742;2023-01-01T10:57:19;9.50;;;3.40;;
31284;SDS011;56605;51.516;6.742;2023-01-01T10:59:52;12.55;;;5.28;;
31284;SDS011;56605;51.516;6.742;2023-01-01T11:02:25;11.35;;;3.50;;
31284;SDS011;56605;51.516;6.742;2023-01-01T11:04:52;12.82;;;2.92;;
31284;SDS011;56605;51.516;6.742;2023-01-01T11:07:37;11.98;;;2.83;;
31284;SDS011;56605;51.516;6.742;2023-01-01T11:10:05;11.90;;;4.03;;
31284;SDS011;56605;51.516;6.742;2023-01-01T11:12:39;11.77;;;3.42;;
31284;SDS011;56605;51.516;6.742;2023-01-01T11:15:05;18.05;;;3.55;;
31284;SDS011;56605;51.516;6.742;2023-01-01T11:17:31;10.55;;;3.42;;
31284;SDS011;56605;51.516;6.742;2023-01-01T11:19:59;10.40;;;2.60;;
31284;SDS011;56605;51.516;6.742;2023-01-01T11:22:39;16.58;;;3.58;;
31284;SDS011;56605;51.516;6.742;2023-01-01T11:25:17;7.07;;;3.05;;
31284;SDS011;56605;51.516;6.742;2023-01-01T11:27:49;8.65;;;2.55;;
31284;SDS011;56605;51.516;6.742;2023-01-01T11:30:19;15.20;;;2.92;;
31284;SDS011;56605;51.516;6.742;2023-01-01T11:32:53;15.52;;;3.58;;
31284;SDS011;56605;51.516;6.742;2023-01-01T11:35:22;13.38;;;3.20;;
31284;SDS011;56605;51.516;6.742;2023-01-01T11:37:51;14.77;;;4.32;;
31284;SDS011;56605;51.516;6.742;2023-01-01T11:40:36;8.20;;;2.92;;
31284;SDS011;56605;51.516;6.742;2023-01-01T11:43:13;9.57;;;2.47;;
31284;SDS011;56605;51.516;6.742;2023-01-01T11:45:41;7.53;;;2.03;;
31284;SDS011;56605;51.516;6.742;2023-01-01T11:48:14;6.43;;;2.35;;
31284;SDS011;56605;51.516;6.742;2023-01-01T11:50:54;16.58;;;3.00;;
31284;SDS011;56605;51.516;6.742;2023-01-01T11:58:23;13.10;;;3.10;;
31284;SDS011;56605;51.516;6.742;2023-01-01T12:01:01;11.00;;;3.60;;
31284;SDS011;56605;51.516;6.742;2023-01-01T12:08:30;13.07;;;3.05;;
31284;SDS011;56605;51.516;6.742;2023-01-01T12:11:06;6.80;;;2.65;;
31284;SDS011;56605;51.516;6.742;2023-01-01T12:13:55;14.18;;;3.53;;
31284;SDS011;56605;51.516;6.742;2023-01-01T12:16:37;12.45;;;3.80;;
31284;SDS011;56605;51.516;6.742;2023-01-01T12:19:10;12.55;;;3.22;;
31284;SDS011;56605;51.516;6.742;2023-01-01T12:21:45;12.13;;;3.72;;
31284;SDS011;56605;51.516;6.742;2023-01-01T12:24:13;13.68;;;2.65;;
31284;SDS011;56605;51.516;6.742;2023-01-01T12:32:07;5.55;;;2.45;;
31284;SDS011;56605;51.516;6.742;2023-01-01T12:37:22;10.68;;;2.03;;
31284;SDS011;56605;51.516;6.742;2023-01-01T12:43:11;11.90;;;2.60;;
31284;SDS011;56605;51.516;6.742;2023-01-01T12:48:56;8.63;;;2.45;;
31284;SDS011;56605;51.516;6.742;2023-01-01T12:51:45;8.73;;;2.35;;
31284;SDS011;56605;51.516;6.742;2023-01-01T12:54:41;10.63;;;2.20;;
31284;SDS011;56605;51.516;6.742;2023-01-01T13:00:21;6.88;;;2.20;;
31284;SDS011;56605;51.516;6.742;2023-01-01T13:02:51;14.07;;;3.28;;
31284;SDS011;56605;51.516;6.742;2023-01-01T13:05:23;8.75;;;2.92;;
31284;SDS011;56605;51.516;6.742;2023-01-01T13:07:53;7.57;;;2.25;;
31284;SDS011;56605;51.516;6.742;2023-01-01T13:10:37;6.30;;;2.42;;
31284;SDS011;56605;51.516;6.742;2023-01-01T13:13:04;8.13;;;2.70;;
31284;SDS011;56605;51.516;6.742;2023-01-01T13:15:49;7.85;;;2.88;;
31284;SDS011;56605;51.516;6.742;2023-01-01T13:18:18;10.75;;;3.10;;
31284;SDS011;56605;51.516;6.742;2023-01-01T13:23:39;5.95;;;2.10;;
31284;SDS011;56605;51.516;6.742;2023-01-01T13:45:15;8.38;;;3.00;;
31284;SDS011;56605;51.516;6.742;2023-01-01T14:07:15;13.07;;;4.45;;
31284;SDS011;56605;51.516;6.742;2023-01-01T14:09:42;15.10;;;4.38;;
31284;SDS011;56605;51.516;6.742;2023-01-01T14:12:08;14.63;;;3.72;;
31284;SDS011;56605;51.516;6.742;2023-01-01T14:14:38;10.15;;;3.55;;
31284;SDS011;56605;51.516;6.742;2023-01-01T14:17:07;10.60;;;3.67;;
31284;SDS011;56605;51.516;6.742;2023-01-01T14:19:32;9.80;;;2.70;;
31284;SDS011;56605;51.516;6.742;2023-01-01T14:21:59;12.38;;;3.53;;
31284;SDS011;56605;51.516;6.742;2023-01-01T14:24:24;11.05;;;3.38;;
31284;SDS011;56605;51.516;6.742;2023-01-01T14:26:52;12.00;;;3.45;;
31284;SDS011;56605;51.516;6.742;2023-01-01T14:29:24;9.25;;;3.22;;
31284;SDS011;56605;51.516;6.742;2023-01-01T14:31:53;10.90;;;3.45;;
31284;SDS011;56605;51.516;6.742;2023-01-01T14:34:22;13.02;;;3.63;;
31284;SDS011;56605;51.516;6.742;2023-01-01T14:36:56;14.43;;;4.07;;
31284;SDS011;56605;51.516;6.742;2023-01-01T14:39:24;5.43;;;1.90;;
31284;SDS011;56605;51.516;6.742;2023-01-01T14:41:51;10.13;;;2.53;;
31284;SDS011;56605;51.516;6.742;2023-01-01T14:44:19;9.05;;;2.60;;
31284;SDS011;56605;51.516;6.742;2023-01-01T14:46:51;9.27;;;2.55;;
31284;SDS011;56605;51.516;6.742;2023-01-01T14:49:18;8.07;;;2.05;;
31284;SDS011;56605;51.516;6.742;2023-01-01T14:51:50;8.85;;;2.95;;
31284;SDS011;56605;51.516;6.742;2023-01-01T14:54:20;4.95;;;2.20;;
31284;SDS011;56605;51.516;6.742;2023-01-01T14:56:49;10.88;;;2.70;;
31284;SDS011;56605;51.516;6.742;2023-01-01T15:01:58;12.23;;;3.22;;
31284;SDS011;56605;51.516;6.742;2023-01-01T15:04:28;9.48;;;2.30;;
31284;SDS011;56605;51.516;6.742;2023-01-01T15:06:55;10.68;;;4.30;;
31284;SDS011;56605;51.516;6.742;2023-01-01T15:09:21;10.80;;;3.47;;
31284;SDS011;56605;51.516;6.742;2023-01-01T15:11:50;12.02;;;4.65;;
31284;SDS011;56605;51.516;6.742;2023-01-01T15:17:06;8.13;;;2.67;;
31284;SDS011;56605;51.516;6.742;2023-01-01T15:19:34;12.25;;;3.40;;
31284;SDS011;56605;51.516;6.742;2023-01-01T15:22:00;12.32;;;3.08;;
31284;SDS011;56605;51.516;6.742;2023-01-01T15:24:32;8.35;;;3.17;;
31284;SDS011;56605;51.516;6.742;2023-01-01T15:27:02;11.48;;;2.90;;
31284;SDS011;56605;51.516;6.742;2023-01-01T15:29:39;7.05;;;2.88;;
31284;SDS011;56605;51.516;6.742;2023-01-01T15:32:10;19.70;;;4.43;;
31284;SDS011;56605;51.516;6.742;2023-01-01T15:34:42;12.40;;;3.88;;
31284;SDS011;56605;51.516;6.742;2023-01-01T15:37:14;6.03;;;2.80;;
31284;SDS011;56605;51.516;6.742;2023-01-01T15:39:47;15.18;;;3.72;;
31284;SDS011;56605;51.516;6.742;2023-01-01T15:47:41;6.30;;;2.20;;
31284;SDS011;56605;51.516;6.742;2023-01-01T15:52:32;13.00;;;3.33;;
31284;SDS011;56605;51.516;6.742;2023-01-01T15:54:59;10.52;;;3.45;;
31284;SDS011;56605;51.516;6.742;2023-01-01T15:57:25;7.25;;;2.63;;
31284;SDS011;56605;51.516;6.742;2023-01-01T15:59:51;17.90;;;3.50;;
31284;SDS011;56605;51.516;6.742;2023-01-01T16:02:19;9.27;;;2.97;;
31284;SDS011;56605;51.516;6.742;2023-01-01T16:04:48;9.55;;;3.05;;
31284;SDS011;56605;51.516;6.742;2023-01-01T16:07:15;7.18;;;3.42;;
31284;SDS011;56605;51.516;6.742;2023-01-01T16:09:43;13.20;;;3.17;;
31284;SDS011;56605;51.516;6.742;2023-01-01T16:12:08;12.30;;;3.55;;
31284;SDS011;56605;51.516;6.742;2023-01-01T16:14:34;11.23;;;3.75;;
31284;SDS011;56605;51.516;6.742;2023-01-01T16:17:00;20.70;;;6.22;;
31284;SDS011;56605;51.516;6.742;2023-01-01T16:19:26;16.58;;;4.53;;
31284;SDS011;56605;51.516;6.742;2023-01-01T16:21:53;16.95;;;3.92;;
31284;SDS011;56605;51.516;6.742;2023-01-01T16:24:19;12.38;;;3.60;;
31284;SDS011;56605;51.516;6.742;2023-01-01T16:26:45;16.40;;;3.53;;
31284;SDS011;56605;51.516;6.742;2023-01-01T16:29:11;10.57;;;4.03;;
31284;SDS011;56605;51.516;6.742;2023-01-01T16:31:40;11.15;;;3.53;;
31284;SDS011;56605;51.516;6.742;2023-01-01T16:34:06;20.42;;;4.70;;
31284;SDS011;56605;51.516;6.742;2023-01-01T16:36:35;14.55;;;3.70;;
31284;SDS011;56605;51.516;6.742;2023-01-01T16:39:01;9.18;;;2.85;;
31284;SDS011;56605;51.516;6.742;2023-01-01T16:41:26;10.77;;;4.50;;
31284;SDS011;56605;51.516;6.742;2023-01-01T16:43:55;14.68;;;4.50;;
31284;SDS011;56605;51.516;6.742;2023-01-01T16:46:21;21.45;;;5.95;;
31284;SDS011;56605;51.516;6.742;2023-01-01T16:48:47;16.90;;;6.05;;
31284;SDS011;56605;51.516;6.742;2023-01-01T16:51:17;15.05;;;6.72;;
31284;SDS011;56605;51.516;6.742;2023-01-01T16:53:44;16.85;;;6.88;;
31284;SDS011;56605;51.516;6.742;2023-01-01T16:56:10;16.13;;;4.40;;
31284;SDS011;56605;51.516;6.742;2023-01-01T16:58:36;12.38;;;4.47;;
31284;SDS011;56605;51.516;6.742;2023-01-01T17:01:02;11.02;;;3.65;;
31284;SDS011;56605;51.516;6.742;2023-01-01T17:03:27;9.88;;;3.33;;
31284;SDS011;56605;51.516;6.742;2023-01-01T17:05:53;15.85;;;4.07;;
31284;SDS011;56605;51.516;6.742;2023-01-01T17:08:18;14.88;;;4.00;;
31284;SDS011;56605;51.516;6.742;2023-01-01T17:10:44;9.27;;;3.75;;
31284;SDS011;56605;51.516;6.742;2023-01-01T17:13:10;14.57;;;4.80;;
31284;SDS011;56605;51.516;6.742;2023-01-01T17:15:35;10.85;;;5.25;;